createdAt,value
2022-09-20T00:00:52.456Z,34.8
2022-09-20T00:06:31.107Z,34.8
2022-09-20T00:11:52.074Z,34.7
2022-09-20T17:05:00.850Z,37.1
2022-09-20T17:10:38.322Z,37.1
2022-09-20T17:16:16.662Z,37
2022-09-20T17:21:40.646Z,36.9
2022-09-20T17:27:17.829Z,36.8
2022-09-20T17:32:45.849Z,36.8
2022-09-20T17:38:08.501Z,36.7
2022-09-20T17:43:35.391Z,36.6
2022-09-20T17:49:13.846Z,36.6
2022-09-20T17:59:59.309Z,36.4
2022-09-20T18:10:34.317Z,36.3
2022-09-20T18:16:01.581Z,36.3
2022-09-20T18:21:23.469Z,36.3
2022-09-20T18:27:01.908Z,36.2
2022-09-20T18:32:42.956Z,36.1
2022-09-20T18:38:21.210Z,36.1
2022-09-20T18:54:14.040Z,35.9
2022-09-20T19:00:03.295Z,35.9
2022-09-20T19:05:42.704Z,35.9
2022-09-20T19:11:27.132Z,35.8
2022-09-20T19:16:49.648Z,35.8
2022-09-20T19:22:12.943Z,35.8
2022-09-20T19:27:39.663Z,35.7
2022-09-20T19:33:02.075Z,35.6
2022-09-20T19:38:39.434Z,35.5
2022-09-20T19:44:17.135Z,35.5
2022-09-20T19:49:55.407Z,35.4
2022-09-20T20:00:42.649Z,35.4
2022-09-20T20:06:08.017Z,35.3
2022-09-20T20:11:30.734Z,35.3
2022-09-20T20:16:26.652Z,35.3
2022-09-20T20:21:48.917Z,35.3
2022-09-20T20:32:55.472Z,35.2
2022-09-20T20:38:32.919Z,35.2
2022-09-20T20:44:13.810Z,35.1
2022-09-20T20:49:52.618Z,35.1
2022-09-20T20:55:30.246Z,35.1
2022-09-20T21:00:36.156Z,35.1
